Airfield :
LOGIN :

Register | Disclaimer

   EN    FR    IT 

 










Legend :    VFR   Marginal VFR   IFR   Intensive IFR   Very Intensive IFR
Visi :
Ceiling :
>= 8 km
>= 3000ft
5 to 8 km
1000 to 3000 ft
1500m to 5 km
500 to 1000 ft
800 to 1500m
200 to 500 ft
< 800m
< 200 ft
Symbols :   Thunderstorms  Fog  Heavy snow  Heavy precipitations  Wind > 20 kt
SIGMETs :     Misc.  Thunderstorms  Icing  Turbulence  Mountain Waves  Volcanic Ashes






- Airport Elevation : 348 ft
- IATA code : TSR


LRTR - Timisoara

CURRENT METAR :
  • 050130Z 10009KT CAVOK 20/14 Q1010

EXPIRED METARs :
  • 050100Z 09007KT CAVOK 21/14 Q1010
  • 050030Z 08007KT 050V110 CAVOK 21/15 Q1010
  • 050000Z 08006KT CAVOK 20/16 Q1010
  • 042330Z 09003KT CAVOK 19/14 Q1011
  • 042300Z 09003KT CAVOK 19/14 Q1011

TAF TAF LRTR
Valid from the 05 at 00:00 until the 06 at 00:00 UTC


042300Z 0500/0600 11008KT CAVOK
BECMG 0506/0508 19010KT
TEMPO 0509/0518 19020G30KT 5000 TSRA SCT010 SCT040CB
PROB30
TEMPO 0510/0515 19035G45KT 1500 TSRAGR SQ BKN010 BKN030CB
BECMG 0518/0520 32006KT



MET'MAP, your aeronautical weather chart ! - Copyright ORBIFLY December 2007 - Disclaimer

ORBIFLY MET'MAP TEAM :

Programming & Development : Alexandra Zaïnal
Concept & original design : Baudouin d'Aumeries
Assistance for programming : Marc-Olivier Méhu
Technical & hardware support : Manuel Goepfert

Contact : metmap@orbifly.com




SOURCES & CREDITS :

   NOAA